Coity, United Kingdom
Current Conditions -  °F | °C
As of 1:50 AM on Sunday 21 Dec 2014 (Local Time) from EGDX Reporting Station
Rain Showers Rain Showers  
Wind Chill: 40°   Ceiling: 1200
Heat Index: 46°   Visibility: 6mi
Dew Point: 45°   Wind: 15mph
Humidity: 93%   Direction: 270°W
Pressure: 30.39"   Gusts: NA
Location:  51.52°N, 3.56°W
Report Text: EGDX 210150Z AUTO 27013KT 9999 -SHRA FEW005/// BKN012/// 08/07 Q1029
Loading
Personal Weather Stations






























Interactive Weather Map New forecast layout! Learn more

10-Day Weather Forecast

Advertisements
Track Severe Weather on mobile